Seattle, Washington
Traffic Map
Current Weather Conditions
Seattle, Washington
Overcast
Overcast
14°
Feels Like: 14°
Wind Chill: 14° Ceiling: 3400
Heat Index: 14° Visibility: 10mi
Dew Point: Wind: 3mph
Humidity: 74% Direction: 200° (SSW)
Pressure: 30.05in Gusts: 0mph
Raw Report DataKBFI 261253Z 20003KT 10SM OVC034 14/09 A3005 RMK AO2 SLP174 T01390094
Traffic Incident Summary
Active as of:
Severity:
Category:
InformationThere was an issue retrieving the traffic information for this location. Please try a different location or try again shortly.
Advertisements
Track Severe Weather on mobile